createdAt,value
2022-09-09T00:02:13.131Z,16.80
2022-09-09T00:04:40.553Z,14.00
2022-09-09T00:07:24.718Z,14.00
2022-09-09T00:10:00.023Z,14.10
2022-09-09T00:12:45.652Z,14.10
2022-09-09T00:15:14.023Z,14.20
2022-09-09T00:17:50.971Z,14.30
2022-09-09T00:20:17.701Z,14.50
2022-09-09T00:22:49.073Z,16.40
2022-09-09T00:25:18.803Z,14.40
2022-09-09T00:27:49.759Z,14.60
2022-09-09T00:30:19.715Z,14.50
2022-09-09T00:32:47.311Z,14.50
2022-09-09T00:35:17.191Z,14.60
2022-09-09T00:37:44.854Z,14.60
2022-09-09T00:40:23.406Z,16.60
2022-09-09T00:42:55.333Z,14.80
2022-09-09T00:46:00.632Z,14.90
2022-09-09T00:48:37.163Z,14.90
2022-09-09T00:51:11.433Z,14.90
2022-09-09T00:53:59.710Z,15.00
2022-09-09T00:56:28.701Z,15.00
2022-09-09T00:59:04.047Z,16.60
2022-09-09T01:01:30.737Z,15.00
2022-09-09T01:04:00.498Z,15.00
2022-09-09T01:06:27.180Z,14.90
2022-09-09T01:09:12.721Z,17.90
2022-09-09T01:11:51.687Z,15.00
2022-09-09T01:14:26.504Z,14.90
2022-09-09T01:16:57.215Z,14.90
2022-09-09T01:19:50.302Z,15.00
2022-09-09T01:22:36.147Z,15.00
2022-09-09T01:25:09.269Z,14.90
2022-09-09T01:27:37.115Z,14.90
2022-09-09T01:30:08.768Z,14.80
2022-09-09T01:32:59.914Z,14.80
2022-09-09T01:35:26.663Z,14.70
2022-09-09T01:37:53.387Z,14.60
2022-09-09T01:40:20.186Z,14.50
2022-09-09T01:42:46.807Z,14.30
2022-09-09T01:45:13.509Z,14.20
2022-09-09T01:47:40.632Z,14.10
2022-09-09T01:50:09.403Z,14.10
2022-09-09T01:52:37.084Z,14.10
2022-09-09T01:55:03.968Z,15.40
2022-09-09T01:57:53.935Z,14.10
2022-09-09T02:00:20.821Z,14.10
2022-09-09T02:02:59.782Z,14.10
2022-09-09T02:05:29.507Z,14.10
2022-09-09T02:08:28.907Z,14.10
2022-09-09T02:11:15.654Z,14.10
2022-09-09T02:13:43.907Z,14.10
2022-09-09T02:16:10.657Z,14.10
2022-09-09T02:18:52.417Z,14.10
2022-09-09T02:21:19.364Z,14.10
2022-09-09T02:23:47.976Z,16.00
2022-09-09T02:26:20.834Z,15.10
2022-09-09T02:28:48.493Z,13.90
2022-09-09T02:31:18.015Z,13.90
2022-09-09T02:33:47.036Z,14.30
2022-09-09T02:36:17.181Z,15.60
2022-09-09T02:38:46.782Z,13.90
2022-09-09T02:41:13.460Z,14.00
2022-09-09T02:43:40.279Z,15.40
2022-09-09T02:46:26.043Z,15.00
2022-09-09T02:48:59.487Z,13.70
2022-09-09T02:51:46.401Z,13.50
2022-09-09T02:54:25.303Z,15.90
2022-09-09T02:56:57.947Z,13.50
2022-09-09T02:59:26.284Z,13.50
2022-09-09T03:01:54.326Z,13.30
2022-09-09T03:04:21.584Z,13.90
2022-09-09T03:06:48.408Z,13.10
2022-09-09T03:09:15.113Z,14.60
2022-09-09T03:11:41.830Z,14.30
2022-09-09T03:14:09.465Z,13.30
2022-09-09T03:16:36.109Z,13.50
2022-09-09T03:19:02.736Z,13.50
2022-09-09T03:21:29.613Z,14.90
2022-09-09T03:23:56.679Z,14.40
2022-09-09T03:26:23.944Z,13.30
2022-09-09T03:28:52.174Z,15.40
2022-09-09T03:31:20.328Z,13.20
2022-09-09T03:33:47.167Z,14.80
2022-09-09T03:36:14.060Z,12.90
2022-09-09T03:38:41.011Z,13.70
2022-09-09T03:41:08.999Z,12.60
2022-09-09T03:43:35.977Z,12.50
2022-09-09T03:46:02.666Z,12.90
2022-09-09T03:48:30.011Z,13.10
2022-09-09T03:51:01.790Z,13.30
2022-09-09T03:53:28.911Z,12.90
2022-09-09T03:55:56.404Z,12.40
2022-09-09T03:58:25.148Z,13.10
2022-09-09T04:00:55.875Z,14.50
2022-09-09T04:03:27.641Z,12.60
2022-09-09T04:05:55.413Z,12.70
2022-09-09T04:08:22.362Z,14.00
2022-09-09T04:10:49.522Z,13.10
2022-09-09T04:13:19.426Z,13.20
2022-09-09T04:15:51.901Z,13.30
2022-09-09T04:18:20.119Z,15.20
2022-09-09T04:20:47.653Z,13.60
2022-09-09T04:23:14.892Z,14.90
2022-09-09T04:25:45.741Z,13.80
2022-09-09T04:28:12.364Z,13.80
2022-09-09T04:30:40.768Z,14.70
2022-09-09T04:33:07.929Z,14.40
2022-09-09T04:35:35.042Z,13.90
2022-09-09T04:38:03.583Z,13.90
2022-09-09T04:40:30.903Z,13.90
2022-09-09T04:43:01.033Z,14.10
2022-09-09T04:45:27.899Z,14.00
2022-09-09T04:47:54.940Z,14.00
2022-09-09T04:50:21.557Z,14.00
2022-09-09T04:52:48.242Z,13.90
2022-09-09T04:55:14.945Z,15.20
2022-09-09T04:57:41.716Z,13.90
2022-09-09T05:00:08.719Z,14.90
2022-09-09T05:02:38.793Z,13.90
2022-09-09T05:05:06.068Z,14.00
2022-09-09T05:07:33.029Z,14.00
2022-09-09T05:09:59.740Z,15.00
2022-09-09T05:12:26.666Z,14.20
2022-09-09T05:14:53.473Z,16.10
2022-09-09T05:17:20.108Z,16.30
2022-09-09T05:19:46.817Z,14.20
2022-09-09T05:22:13.468Z,14.10
2022-09-09T05:24:40.096Z,14.50
2022-09-09T05:27:07.126Z,14.20
2022-09-09T05:29:34.537Z,14.20
2022-09-09T05:32:01.400Z,14.20
2022-09-09T05:34:28.123Z,14.20
2022-09-09T05:36:54.909Z,16.40
2022-09-09T05:39:21.654Z,14.30
2022-09-09T05:41:48.212Z,15.70
2022-09-09T05:44:14.943Z,14.30
2022-09-09T05:46:41.672Z,14.30
2022-09-09T05:49:09.305Z,16.00
2022-09-09T05:51:35.998Z,14.40
2022-09-09T05:54:02.873Z,16.20
2022-09-09T05:56:30.390Z,15.70
2022-09-09T05:58:57.386Z,14.50
2022-09-09T06:01:30.021Z,14.60
2022-09-09T06:03:56.758Z,15.20
2022-09-09T06:06:25.132Z,14.70
2022-09-09T06:08:52.649Z,14.80
2022-09-09T06:11:21.153Z,14.80
2022-09-09T06:13:48.691Z,14.90
2022-09-09T06:16:18.902Z,15.00
2022-09-09T06:18:45.643Z,15.90
2022-09-09T06:21:14.894Z,15.10
2022-09-09T06:23:41.851Z,15.10
2022-09-09T06:26:11.157Z,15.30
2022-09-09T06:28:38.404Z,15.30
2022-09-09T06:31:06.591Z,15.30
2022-09-09T06:33:35.890Z,15.30
2022-09-09T06:36:04.765Z,15.40
2022-09-09T06:38:31.732Z,15.50
2022-09-09T06:40:59.917Z,15.60
2022-09-09T06:43:27.336Z,15.70
2022-09-09T06:45:57.860Z,15.80
2022-09-09T06:48:24.528Z,15.90
2022-09-09T06:50:51.244Z,16.20
2022-09-09T06:53:19.985Z,16.00
2022-09-09T06:55:46.875Z,16.00
2022-09-09T06:58:13.612Z,16.10
2022-09-09T07:00:40.336Z,16.10
2022-09-09T07:03:07.196Z,16.40
2022-09-09T07:05:33.834Z,16.20
2022-09-09T07:08:00.501Z,17.30
2022-09-09T07:10:27.246Z,16.40
2022-09-09T07:12:54.379Z,16.40
2022-09-09T07:15:21.104Z,16.50
2022-09-09T07:17:48.068Z,16.50
2022-09-09T07:20:15.609Z,17.60
2022-09-09T07:22:42.455Z,16.70
2022-09-09T07:25:10.060Z,16.80
2022-09-09T07:27:36.753Z,16.80
2022-09-09T07:30:03.800Z,16.90
2022-09-09T07:32:31.576Z,16.90
2022-09-09T07:34:59.431Z,17.00
2022-09-09T07:37:26.068Z,18.60
2022-09-09T07:39:52.775Z,17.50
2022-09-09T07:42:20.382Z,16.80
2022-09-09T07:44:47.070Z,18.80
2022-09-09T07:47:13.789Z,16.70
2022-09-09T07:49:40.591Z,16.70
2022-09-09T07:54:33.993Z,17.90
2022-09-09T07:57:00.646Z,16.90
2022-09-09T07:59:27.409Z,16.90
2022-09-09T08:01:57.115Z,16.90
2022-09-09T08:04:25.059Z,18.40
2022-09-09T08:06:53.846Z,17.30
2022-09-09T08:09:21.478Z,17.10
2022-09-09T08:11:48.679Z,17.20
2022-09-09T08:14:15.592Z,17.40
2022-09-09T08:16:44.174Z,17.40
2022-09-09T08:19:11.029Z,17.50
2022-09-09T08:21:40.055Z,17.60
2022-09-09T08:24:07.357Z,17.60
2022-09-09T08:26:35.739Z,17.70
2022-09-09T08:29:03.352Z,17.80
2022-09-09T08:31:31.492Z,17.90
2022-09-09T08:34:00.568Z,18.00
2022-09-09T08:36:28.281Z,18.30
2022-09-09T08:38:56.019Z,18.50
2022-09-09T08:41:22.625Z,19.30
2022-09-09T08:43:51.567Z,18.70
2022-09-09T08:46:33.869Z,18.70
2022-09-09T08:49:21.460Z,18.40
2022-09-09T08:51:49.149Z,18.20
2022-09-09T08:54:25.664Z,18.20
2022-09-09T08:57:02.263Z,17.70
2022-09-09T08:59:29.124Z,18.80
2022-09-09T09:02:09.924Z,17.30
2022-09-09T09:04:51.454Z,17.20
2022-09-09T09:07:47.710Z,17.20
2022-09-09T09:10:40.476Z,17.10
2022-09-09T09:13:14.349Z,17.20
2022-09-09T09:15:42.430Z,20.30
2022-09-09T09:18:13.678Z,17.10
2022-09-09T09:21:03.529Z,18.50
2022-09-09T09:23:36.432Z,17.00
2022-09-09T09:26:03.275Z,17.00
2022-09-09T09:28:30.949Z,17.20
2022-09-09T09:31:02.714Z,17.20
2022-09-09T09:33:55.773Z,20.10
2022-09-09T09:36:25.768Z,17.40
2022-09-09T09:41:48.973Z,18.00
2022-09-09T09:44:21.882Z,17.40
2022-09-09T09:46:48.652Z,17.50
2022-09-09T09:49:15.316Z,17.50
2022-09-09T09:51:42.100Z,17.60
2022-09-09T09:54:10.003Z,17.80
2022-09-09T09:56:36.660Z,17.80
2022-09-09T09:59:09.307Z,20.70
2022-09-09T10:01:44.848Z,17.90
2022-09-09T10:04:14.656Z,18.00
2022-09-09T10:06:41.687Z,18.00
2022-09-09T10:09:23.191Z,20.70
2022-09-09T10:11:59.108Z,18.40
2022-09-09T10:14:29.005Z,18.40
2022-09-09T10:17:09.978Z,18.40
2022-09-09T10:19:37.728Z,18.50
2022-09-09T10:22:07.694Z,21.60
2022-09-09T10:24:57.677Z,18.50
2022-09-09T10:27:43.965Z,18.50
2022-09-09T10:30:29.388Z,18.50
2022-09-09T10:33:16.953Z,18.60
2022-09-09T10:35:53.167Z,18.60
2022-09-09T10:38:40.055Z,18.50
2022-09-09T10:41:12.709Z,18.80
2022-09-09T10:43:40.367Z,18.90
2022-09-09T10:46:11.098Z,20.00
2022-09-09T10:48:46.686Z,20.60
2022-09-09T10:51:18.918Z,18.90
2022-09-09T10:54:04.199Z,19.00
2022-09-09T10:56:31.770Z,19.80
2022-09-09T10:59:03.739Z,20.60
2022-09-09T11:01:38.557Z,18.50
2022-09-09T11:04:25.494Z,18.80
2022-09-09T11:06:54.960Z,19.00
2022-09-09T11:09:30.416Z,17.50
2022-09-09T11:11:57.560Z,17.10
2022-09-09T11:14:25.549Z,16.90
2022-09-09T11:16:52.208Z,16.80
2022-09-09T11:19:42.359Z,17.70
2022-09-09T11:22:30.543Z,16.60
2022-09-09T11:25:03.418Z,16.50
2022-09-09T11:27:38.629Z,16.50
2022-09-09T11:30:17.463Z,16.60
2022-09-09T11:32:58.828Z,16.70
2022-09-09T11:35:33.676Z,16.80
2022-09-09T11:38:13.506Z,17.00
2022-09-09T11:40:40.684Z,17.00
2022-09-09T11:43:15.502Z,18.80
2022-09-09T11:45:43.609Z,17.20
2022-09-09T11:48:29.762Z,20.40
2022-09-09T11:51:19.338Z,17.50
2022-09-09T11:53:53.852Z,17.60
2022-09-09T11:56:25.412Z,17.60
2022-09-09T11:58:59.262Z,17.60
2022-09-09T12:01:31.182Z,17.80
2022-09-09T12:04:13.282Z,17.90
2022-09-09T12:06:59.990Z,18.20
2022-09-09T12:09:26.761Z,18.40
2022-09-09T12:11:53.394Z,18.60
2022-09-09T12:14:37.439Z,18.70
2022-09-09T12:17:23.681Z,18.50
2022-09-09T12:20:05.543Z,18.50
2022-09-09T12:22:32.215Z,18.50
2022-09-09T12:25:08.824Z,20.80
2022-09-09T12:27:46.726Z,18.50
2022-09-09T12:30:15.718Z,18.60
2022-09-09T12:32:42.568Z,19.50
2022-09-09T12:35:09.246Z,18.50
2022-09-09T12:37:39.037Z,18.40
2022-09-09T12:40:23.295Z,18.60
2022-09-09T12:42:51.026Z,18.60
2022-09-09T12:45:28.008Z,18.70
2022-09-09T12:47:56.701Z,18.70
2022-09-09T12:50:26.804Z,18.80
2022-09-09T12:52:55.541Z,18.90
2022-09-09T12:55:26.318Z,20.40
2022-09-09T12:57:53.211Z,22.50
2022-09-09T13:00:24.227Z,19.40
2022-09-09T13:02:55.180Z,19.50
2022-09-09T13:05:24.258Z,19.60
2022-09-09T13:07:51.268Z,19.50
2022-09-09T13:10:36.223Z,19.80
2022-09-09T13:13:04.195Z,19.50
2022-09-09T13:15:30.937Z,19.20
2022-09-09T13:17:59.596Z,19.30
2022-09-09T13:20:26.407Z,19.20
2022-09-09T13:22:54.236Z,19.20
2022-09-09T13:25:26.701Z,19.90
2022-09-09T13:27:54.371Z,19.40
2022-09-09T13:30:23.899Z,20.30
2022-09-09T13:33:05.034Z,19.30
2022-09-09T13:35:32.458Z,19.40
2022-09-09T13:37:59.748Z,19.40
2022-09-09T13:40:26.646Z,19.60
2022-09-09T13:42:56.192Z,19.70
2022-09-09T13:45:24.249Z,19.70
2022-09-09T13:47:56.398Z,19.80
2022-09-09T13:50:27.447Z,22.30
2022-09-09T13:52:59.402Z,19.90
2022-09-09T13:55:27.469Z,19.90
2022-09-09T13:57:55.346Z,19.90
2022-09-09T14:00:22.511Z,21.80
2022-09-09T14:02:50.088Z,20.70
2022-09-09T14:05:17.211Z,20.80
2022-09-09T14:07:44.657Z,20.80
2022-09-09T14:10:11.977Z,22.90
2022-09-09T14:12:39.282Z,21.40
2022-09-09T14:15:06.627Z,20.00
2022-09-09T14:17:33.575Z,20.10
2022-09-09T14:20:00.401Z,22.70
2022-09-09T14:22:27.111Z,22.40
2022-09-09T14:24:53.833Z,21.30
2022-09-09T14:27:20.799Z,20.00
2022-09-09T14:29:47.434Z,20.00
2022-09-09T14:32:14.157Z,21.20
2022-09-09T14:34:41.644Z,21.30
2022-09-09T14:37:08.326Z,20.00
2022-09-09T14:39:35.098Z,21.00
2022-09-09T14:42:02.110Z,22.10
2022-09-09T14:44:28.973Z,20.50
2022-09-09T14:46:55.991Z,19.90
2022-09-09T14:49:22.643Z,20.00
2022-09-09T14:51:49.261Z,20.10
2022-09-09T14:54:16.309Z,20.30
2022-09-09T14:56:42.959Z,20.40
2022-09-09T14:59:09.697Z,20.50
2022-09-09T15:01:36.608Z,21.90
2022-09-09T15:04:05.144Z,22.10
2022-09-09T15:06:34.114Z,20.70
2022-09-09T15:09:01.535Z,20.60
2022-09-09T15:11:29.243Z,22.70
2022-09-09T15:13:55.862Z,21.00
2022-09-09T15:16:23.555Z,22.20
2022-09-09T15:18:52.421Z,23.00
2022-09-09T15:21:22.490Z,20.40
2022-09-09T15:23:49.615Z,20.40
2022-09-09T15:26:16.840Z,22.90
2022-09-09T15:28:44.708Z,21.40
2022-09-09T15:31:18.797Z,20.10
2022-09-09T15:33:52.653Z,19.90
2022-09-09T15:36:23.667Z,19.70
2022-09-09T15:38:50.462Z,19.50
2022-09-09T15:41:17.694Z,22.20
2022-09-09T15:43:48.391Z,19.80
2022-09-09T15:46:18.073Z,19.10
2022-09-09T15:48:47.284Z,19.00
2022-09-09T15:51:38.114Z,20.00
2022-09-09T15:54:02.418Z,19.90
2022-09-09T15:56:31.444Z,18.90
2022-09-09T15:58:58.568Z,19.00
2022-09-09T16:01:25.709Z,18.80
2022-09-09T16:03:52.732Z,18.80
2022-09-09T16:06:22.439Z,18.70
2022-09-09T16:08:53.356Z,19.40
2022-09-09T16:11:21.666Z,21.20
2022-09-09T16:13:51.201Z,18.80
2022-09-09T16:16:20.576Z,18.70
2022-09-09T16:18:48.669Z,21.50
2022-09-09T16:21:17.340Z,18.20
2022-09-09T16:23:44.990Z,17.90
2022-09-09T16:26:12.574Z,17.80
2022-09-09T16:28:40.111Z,17.60
2022-09-09T16:31:07.754Z,17.60
2022-09-09T16:33:34.857Z,17.60
2022-09-09T16:36:08.076Z,17.70
2022-09-09T16:38:36.616Z,17.80
2022-09-09T16:41:06.817Z,21.10
2022-09-09T16:43:34.372Z,18.00
2022-09-09T16:46:04.410Z,18.00
2022-09-09T16:48:34.408Z,21.00
2022-09-09T16:51:06.100Z,18.00
2022-09-09T16:53:33.462Z,17.90
2022-09-09T16:56:05.790Z,17.90
2022-09-09T16:58:32.801Z,17.80
2022-09-09T17:01:00.205Z,18.60
2022-09-09T17:03:27.138Z,19.40
2022-09-09T17:05:53.744Z,20.60
2022-09-09T17:08:20.366Z,17.60
2022-09-09T17:10:48.343Z,17.70
2022-09-09T17:13:15.010Z,17.60
2022-09-09T17:15:43.576Z,17.50
2022-09-09T17:18:11.093Z,17.40
2022-09-09T17:20:46.475Z,17.30
2022-09-09T17:23:16.837Z,17.30
2022-09-09T17:25:44.227Z,17.10
2022-09-09T17:28:10.836Z,17.00
2022-09-09T17:30:37.709Z,16.80
2022-09-09T17:33:04.966Z,16.80
2022-09-09T17:35:32.026Z,16.70
2022-09-09T17:37:59.087Z,16.60
2022-09-09T17:40:25.663Z,16.60
2022-09-09T17:42:52.481Z,16.50
2022-09-09T17:45:20.132Z,17.90
2022-09-09T17:47:46.798Z,16.50
2022-09-09T17:50:13.753Z,17.30
2022-09-09T17:52:41.624Z,18.00
2022-09-09T17:55:10.194Z,16.50
2022-09-09T17:57:36.863Z,16.40
2022-09-09T18:00:05.976Z,16.50
2022-09-09T18:02:32.681Z,16.40
2022-09-09T18:04:59.966Z,16.40
2022-09-09T18:07:26.662Z,16.30
2022-09-09T18:09:53.327Z,16.40
2022-09-09T18:12:19.968Z,17.60
2022-09-09T18:14:48.442Z,15.30
2022-09-09T18:17:15.309Z,16.30
2022-09-09T18:19:41.958Z,16.30
2022-09-09T18:22:08.509Z,16.30
2022-09-09T18:24:36.468Z,18.40
2022-09-09T18:27:03.367Z,18.60
2022-09-09T18:29:30.412Z,16.30
2022-09-09T18:31:57.347Z,16.30
2022-09-09T18:34:25.822Z,16.30
2022-09-09T18:36:56.204Z,17.10
2022-09-09T18:39:27.717Z,16.40
2022-09-09T18:41:55.879Z,16.10
2022-09-09T18:44:24.795Z,17.60
2022-09-09T18:46:52.576Z,16.30
2022-09-09T18:49:19.942Z,16.00
2022-09-09T18:51:46.946Z,15.90
2022-09-09T18:54:15.932Z,15.90
2022-09-09T18:56:43.184Z,15.90
2022-09-09T18:59:11.406Z,15.80
2022-09-09T19:01:38.976Z,17.20
2022-09-09T19:04:06.717Z,15.70
2022-09-09T19:06:34.356Z,15.60
2022-09-09T19:09:03.717Z,15.60
2022-09-09T19:11:31.459Z,15.50
2022-09-09T19:14:00.244Z,16.50
2022-09-09T19:16:29.164Z,15.40
2022-09-09T19:18:57.887Z,18.40
2022-09-09T19:21:25.900Z,16.00
2022-09-09T19:23:59.911Z,15.20
2022-09-09T19:26:32.142Z,15.20
2022-09-09T19:28:59.535Z,15.10
2022-09-09T19:31:27.955Z,15.10
2022-09-09T19:33:58.090Z,17.10
2022-09-09T19:36:25.590Z,17.70
2022-09-09T19:38:53.318Z,15.30
2022-09-09T19:41:24.667Z,14.90
2022-09-09T19:43:52.316Z,14.90
2022-09-09T19:46:19.238Z,17.90
2022-09-09T19:48:46.781Z,16.70
2022-09-09T19:51:17.839Z,15.50
2022-09-09T19:53:57.611Z,16.60
2022-09-09T19:56:25.578Z,14.60
2022-09-09T19:58:52.565Z,14.60
2022-09-09T20:01:20.439Z,15.30
2022-09-09T20:03:48.329Z,13.60
2022-09-09T20:06:15.790Z,14.60
2022-09-09T20:08:44.329Z,15.40
2022-09-09T20:11:10.960Z,15.50
2022-09-09T20:13:39.029Z,16.00
2022-09-09T20:16:13.186Z,15.30
2022-09-09T20:18:41.046Z,14.50
2022-09-09T20:21:10.090Z,15.10
2022-09-09T20:23:37.497Z,14.40
2022-09-09T20:26:06.491Z,16.10
2022-09-09T20:28:35.499Z,14.30
2022-09-09T20:31:05.350Z,16.60
2022-09-09T20:33:32.294Z,14.60
2022-09-09T20:36:05.101Z,14.30
2022-09-09T20:38:35.259Z,14.30
2022-09-09T20:41:02.880Z,14.30
2022-09-09T20:43:29.725Z,15.60
2022-09-09T20:45:58.043Z,15.20
2022-09-09T20:48:25.191Z,15.60
2022-09-09T20:50:51.757Z,14.30
2022-09-09T20:53:18.381Z,16.50
2022-09-09T20:55:44.935Z,14.20
2022-09-09T20:58:11.599Z,14.20
2022-09-09T21:00:38.139Z,15.00
2022-09-09T21:03:04.828Z,16.30
2022-09-09T21:05:31.974Z,15.70
2022-09-09T21:07:59.197Z,14.60
2022-09-09T21:10:26.276Z,14.10
2022-09-09T21:12:52.831Z,14.00
2022-09-09T21:15:19.561Z,16.40
2022-09-09T21:17:46.362Z,14.50
2022-09-09T21:20:14.123Z,13.70
2022-09-09T21:22:40.805Z,13.60
2022-09-09T21:25:07.723Z,15.60
2022-09-09T21:27:34.649Z,13.60
2022-09-09T21:30:03.900Z,13.60
2022-09-09T21:32:30.508Z,16.60
2022-09-09T21:34:57.291Z,15.90
2022-09-09T21:37:24.138Z,14.80
2022-09-09T21:39:50.751Z,14.80
2022-09-09T21:42:17.406Z,13.40
2022-09-09T21:44:44.056Z,14.70
2022-09-09T21:47:10.812Z,15.10
2022-09-09T21:49:37.380Z,15.00
2022-09-09T21:52:04.034Z,14.60
2022-09-09T21:54:31.704Z,14.50
2022-09-09T21:56:58.382Z,14.50
2022-09-09T21:59:26.308Z,15.30
2022-09-09T22:01:53.199Z,14.30
2022-09-09T22:04:19.805Z,15.30
2022-09-09T22:06:46.449Z,15.20
2022-09-09T22:09:13.012Z,14.30
2022-09-09T22:11:39.675Z,15.40
2022-09-09T22:14:06.293Z,15.40
2022-09-09T22:16:33.393Z,16.40
2022-09-09T22:19:00.402Z,15.40
2022-09-09T22:21:27.865Z,15.00
2022-09-09T22:23:55.581Z,13.90
2022-09-09T22:26:22.718Z,13.90
2022-09-09T22:28:49.440Z,15.90
2022-09-09T22:31:16.088Z,16.40
2022-09-09T22:33:42.783Z,15.50
2022-09-09T22:36:09.394Z,16.30
2022-09-09T22:38:36.418Z,15.10
2022-09-09T22:41:04.033Z,16.00
2022-09-09T22:43:32.888Z,14.20
2022-09-09T22:46:00.243Z,15.70
2022-09-09T22:48:27.069Z,16.30
2022-09-09T22:50:53.809Z,16.10
2022-09-09T22:53:20.421Z,14.80
2022-09-09T22:55:59.447Z,15.40
2022-09-09T22:58:27.061Z,14.20
2022-09-09T23:00:53.791Z,14.20
2022-09-09T23:03:22.418Z,14.10
2022-09-09T23:06:02.040Z,15.10
2022-09-09T23:08:33.405Z,14.10
2022-09-09T23:11:01.102Z,14.00
2022-09-09T23:13:33.193Z,15.20
2022-09-09T23:16:03.852Z,15.30
2022-09-09T23:18:30.532Z,15.70
2022-09-09T23:21:00.384Z,15.70
2022-09-09T23:23:29.773Z,15.40
2022-09-09T23:25:56.325Z,15.30
2022-09-09T23:28:22.997Z,16.10
2022-09-09T23:30:50.743Z,15.50
2022-09-09T23:33:17.436Z,14.00
2022-09-09T23:35:44.454Z,15.30
2022-09-09T23:38:11.107Z,15.70
2022-09-09T23:40:38.380Z,14.40
2022-09-09T23:43:07.158Z,14.10
2022-09-09T23:45:33.710Z,14.10
2022-09-09T23:48:00.295Z,16.20
2022-09-09T23:50:26.953Z,14.10
2022-09-09T23:52:53.582Z,14.00
2022-09-09T23:55:23.653Z,17.20
2022-09-09T23:57:50.251Z,14.10
